sensor_id;sensor_type;location;lat;lon;timestamp;P1;durP1;ratioP1;P2;durP2;ratioP2
10463;SDS011;5279;42.048;24.638;2023-04-24T00:00:38;4.37;;;3.87;;
10463;SDS011;5279;42.048;24.638;2023-04-24T00:03:05;3.70;;;3.40;;
10463;SDS011;5279;42.048;24.638;2023-04-24T00:05:33;4.20;;;3.63;;
10463;SDS011;5279;42.048;24.638;2023-04-24T00:08:00;4.30;;;3.90;;
10463;SDS011;5279;42.048;24.638;2023-04-24T00:10:29;4.47;;;4.07;;
10463;SDS011;5279;42.048;24.638;2023-04-24T00:12:56;4.30;;;3.90;;
10463;SDS011;5279;42.048;24.638;2023-04-24T00:15:23;4.60;;;4.20;;
10463;SDS011;5279;42.048;24.638;2023-04-24T00:17:50;4.80;;;4.30;;
10463;SDS011;5279;42.048;24.638;2023-04-24T00:20:17;4.37;;;3.97;;
10463;SDS011;5279;42.048;24.638;2023-04-24T00:22:44;5.77;;;3.73;;
10463;SDS011;5279;42.048;24.638;2023-04-24T00:25:10;6.00;;;4.47;;
10463;SDS011;5279;42.048;24.638;2023-04-24T00:27:39;3.97;;;3.67;;
10463;SDS011;5279;42.048;24.638;2023-04-24T00:30:06;4.33;;;3.73;;
10463;SDS011;5279;42.048;24.638;2023-04-24T00:32:34;3.83;;;3.53;;
10463;SDS011;5279;42.048;24.638;2023-04-24T00:35:02;4.77;;;4.27;;
10463;SDS011;5279;42.048;24.638;2023-04-24T00:37:29;5.53;;;3.83;;
10463;SDS011;5279;42.048;24.638;2023-04-24T00:39:56;4.10;;;3.70;;
10463;SDS011;5279;42.048;24.638;2023-04-24T00:42:23;4.13;;;3.60;;
10463;SDS011;5279;42.048;24.638;2023-04-24T00:44:52;4.40;;;4.00;;
10463;SDS011;5279;42.048;24.638;2023-04-24T00:47:19;3.77;;;3.47;;
10463;SDS011;5279;42.048;24.638;2023-04-24T00:49:47;5.23;;;4.00;;
10463;SDS011;5279;42.048;24.638;2023-04-24T00:52:13;4.43;;;3.70;;
10463;SDS011;5279;42.048;24.638;2023-04-24T00:54:42;4.20;;;3.70;;
10463;SDS011;5279;42.048;24.638;2023-04-24T00:57:10;4.00;;;3.70;;
10463;SDS011;5279;42.048;24.638;2023-04-24T00:59:38;3.93;;;3.60;;
10463;SDS011;5279;42.048;24.638;2023-04-24T01:02:07;4.80;;;4.10;;
10463;SDS011;5279;42.048;24.638;2023-04-24T01:04:36;4.50;;;3.60;;
10463;SDS011;5279;42.048;24.638;2023-04-24T01:07:03;6.23;;;3.63;;
10463;SDS011;5279;42.048;24.638;2023-04-24T01:09:35;4.33;;;3.83;;
10463;SDS011;5279;42.048;24.638;2023-04-24T01:12:02;5.70;;;3.87;;
10463;SDS011;5279;42.048;24.638;2023-04-24T01:14:29;4.03;;;3.63;;
10463;SDS011;5279;42.048;24.638;2023-04-24T01:16:56;4.77;;;4.37;;
10463;SDS011;5279;42.048;24.638;2023-04-24T01:19:25;4.10;;;3.70;;
10463;SDS011;5279;42.048;24.638;2023-04-24T01:21:53;3.77;;;3.47;;
10463;SDS011;5279;42.048;24.638;2023-04-24T01:24:25;4.20;;;3.80;;
10463;SDS011;5279;42.048;24.638;2023-04-24T01:26:52;4.33;;;3.93;;
10463;SDS011;5279;42.048;24.638;2023-04-24T01:29:19;4.53;;;3.60;;
10463;SDS011;5279;42.048;24.638;2023-04-24T01:31:46;4.47;;;4.07;;
10463;SDS011;5279;42.048;24.638;2023-04-24T01:34:13;4.67;;;4.27;;
10463;SDS011;5279;42.048;24.638;2023-04-24T01:36:40;4.13;;;3.73;;
10463;SDS011;5279;42.048;24.638;2023-04-24T01:39:08;4.67;;;4.23;;
10463;SDS011;5279;42.048;24.638;2023-04-24T01:41:37;4.57;;;4.07;;
10463;SDS011;5279;42.048;24.638;2023-04-24T01:44:04;4.13;;;3.57;;
10463;SDS011;5279;42.048;24.638;2023-04-24T01:46:31;3.93;;;3.60;;
10463;SDS011;5279;42.048;24.638;2023-04-24T01:48:59;4.07;;;3.67;;
10463;SDS011;5279;42.048;24.638;2023-04-24T01:51:27;4.00;;;3.60;;
10463;SDS011;5279;42.048;24.638;2023-04-24T01:53:53;5.27;;;4.10;;
10463;SDS011;5279;42.048;24.638;2023-04-24T01:56:21;4.33;;;3.93;;
10463;SDS011;5279;42.048;24.638;2023-04-24T01:58:49;5.93;;;3.93;;
10463;SDS011;5279;42.048;24.638;2023-04-24T02:01:18;4.90;;;4.33;;
10463;SDS011;5279;42.048;24.638;2023-04-24T02:03:45;4.97;;;4.50;;
10463;SDS011;5279;42.048;24.638;2023-04-24T02:06:12;5.07;;;4.57;;
10463;SDS011;5279;42.048;24.638;2023-04-24T02:08:39;4.83;;;4.33;;
10463;SDS011;5279;42.048;24.638;2023-04-24T02:11:06;5.20;;;4.40;;
10463;SDS011;5279;42.048;24.638;2023-04-24T02:13:34;4.80;;;4.30;;
10463;SDS011;5279;42.048;24.638;2023-04-24T02:16:03;4.63;;;4.10;;
10463;SDS011;5279;42.048;24.638;2023-04-24T02:18:30;5.53;;;5.03;;
10463;SDS011;5279;42.048;24.638;2023-04-24T02:20:56;5.60;;;4.90;;
10463;SDS011;5279;42.048;24.638;2023-04-24T02:23:23;5.70;;;4.70;;
10463;SDS011;5279;42.048;24.638;2023-04-24T02:25:52;4.60;;;4.13;;
10463;SDS011;5279;42.048;24.638;2023-04-24T02:28:19;4.77;;;4.37;;
10463;SDS011;5279;42.048;24.638;2023-04-24T02:30:47;4.97;;;4.37;;
10463;SDS011;5279;42.048;24.638;2023-04-24T02:33:15;4.77;;;4.27;;
10463;SDS011;5279;42.048;24.638;2023-04-24T02:35:42;4.63;;;4.20;;
10463;SDS011;5279;42.048;24.638;2023-04-24T02:38:09;5.23;;;4.27;;
10463;SDS011;5279;42.048;24.638;2023-04-24T02:40:36;6.73;;;4.63;;
10463;SDS011;5279;42.048;24.638;2023-04-24T02:43:03;5.03;;;4.53;;
10463;SDS011;5279;42.048;24.638;2023-04-24T02:45:29;5.40;;;4.47;;
10463;SDS011;5279;42.048;24.638;2023-04-24T02:47:56;5.50;;;4.53;;
10463;SDS011;5279;42.048;24.638;2023-04-24T02:50:24;4.53;;;4.13;;
10463;SDS011;5279;42.048;24.638;2023-04-24T02:52:51;5.73;;;4.73;;
10463;SDS011;5279;42.048;24.638;2023-04-24T02:55:18;4.23;;;3.83;;
10463;SDS011;5279;42.048;24.638;2023-04-24T02:57:45;4.97;;;4.47;;
10463;SDS011;5279;42.048;24.638;2023-04-24T03:00:12;6.93;;;4.67;;
10463;SDS011;5279;42.048;24.638;2023-04-24T03:02:39;6.83;;;5.10;;
10463;SDS011;5279;42.048;24.638;2023-04-24T03:05:06;8.97;;;4.57;;
10463;SDS011;5279;42.048;24.638;2023-04-24T03:07:35;5.17;;;4.67;;
10463;SDS011;5279;42.048;24.638;2023-04-24T03:10:02;5.43;;;4.20;;
10463;SDS011;5279;42.048;24.638;2023-04-24T03:12:30;4.90;;;4.40;;
10463;SDS011;5279;42.048;24.638;2023-04-24T03:14:56;5.70;;;4.83;;
10463;SDS011;5279;42.048;24.638;2023-04-24T03:17:23;5.57;;;5.07;;
10463;SDS011;5279;42.048;24.638;2023-04-24T03:19:50;5.20;;;4.70;;
10463;SDS011;5279;42.048;24.638;2023-04-24T03:22:17;4.73;;;4.33;;
10463;SDS011;5279;42.048;24.638;2023-04-24T03:24:45;7.20;;;4.83;;
10463;SDS011;5279;42.048;24.638;2023-04-24T03:27:12;4.90;;;4.33;;
10463;SDS011;5279;42.048;24.638;2023-04-24T03:29:39;5.20;;;4.80;;
10463;SDS011;5279;42.048;24.638;2023-04-24T03:32:06;4.60;;;4.20;;
10463;SDS011;5279;42.048;24.638;2023-04-24T03:34:32;5.33;;;4.50;;
10463;SDS011;5279;42.048;24.638;2023-04-24T03:37:00;5.40;;;4.50;;
10463;SDS011;5279;42.048;24.638;2023-04-24T03:39:26;7.00;;;4.87;;
10463;SDS011;5279;42.048;24.638;2023-04-24T03:41:55;5.13;;;4.63;;
10463;SDS011;5279;42.048;24.638;2023-04-24T03:44:22;4.60;;;4.10;;
10463;SDS011;5279;42.048;24.638;2023-04-24T03:46:49;5.33;;;4.27;;
10463;SDS011;5279;42.048;24.638;2023-04-24T03:49:15;4.57;;;4.13;;
10463;SDS011;5279;42.048;24.638;2023-04-24T03:51:42;4.70;;;4.20;;
10463;SDS011;5279;42.048;24.638;2023-04-24T03:54:09;4.63;;;4.13;;
10463;SDS011;5279;42.048;24.638;2023-04-24T03:56:36;5.43;;;4.93;;
10463;SDS011;5279;42.048;24.638;2023-04-24T03:59:04;5.10;;;4.60;;
10463;SDS011;5279;42.048;24.638;2023-04-24T04:01:31;4.87;;;4.37;;
10463;SDS011;5279;42.048;24.638;2023-04-24T04:04:01;4.90;;;4.40;;
10463;SDS011;5279;42.048;24.638;2023-04-24T04:06:28;4.93;;;4.43;;
10463;SDS011;5279;42.048;24.638;2023-04-24T04:08:55;4.60;;;4.20;;
10463;SDS011;5279;42.048;24.638;2023-04-24T04:11:22;4.87;;;4.37;;
10463;SDS011;5279;42.048;24.638;2023-04-24T04:13:49;4.20;;;3.83;;
10463;SDS011;5279;42.048;24.638;2023-04-24T04:16:18;4.57;;;4.17;;
10463;SDS011;5279;42.048;24.638;2023-04-24T04:18:45;4.30;;;3.90;;
10463;SDS011;5279;42.048;24.638;2023-04-24T04:21:12;4.00;;;3.70;;
10463;SDS011;5279;42.048;24.638;2023-04-24T04:23:38;4.27;;;3.87;;
10463;SDS011;5279;42.048;24.638;2023-04-24T04:26:06;4.40;;;4.00;;
10463;SDS011;5279;42.048;24.638;2023-04-24T04:28:34;4.37;;;3.97;;
10463;SDS011;5279;42.048;24.638;2023-04-24T04:31:01;3.93;;;3.63;;
10463;SDS011;5279;42.048;24.638;2023-04-24T04:33:29;4.23;;;3.83;;
10463;SDS011;5279;42.048;24.638;2023-04-24T04:35:56;4.30;;;3.90;;
10463;SDS011;5279;42.048;24.638;2023-04-24T04:38:23;4.50;;;4.10;;
10463;SDS011;5279;42.048;24.638;2023-04-24T04:40:51;4.90;;;3.80;;
10463;SDS011;5279;42.048;24.638;2023-04-24T04:43:18;4.63;;;4.07;;
10463;SDS011;5279;42.048;24.638;2023-04-24T04:45:45;4.47;;;3.93;;
10463;SDS011;5279;42.048;24.638;2023-04-24T04:48:13;3.87;;;3.57;;
10463;SDS011;5279;42.048;24.638;2023-04-24T04:50:45;4.77;;;3.77;;
10463;SDS011;5279;42.048;24.638;2023-04-24T04:53:11;3.73;;;3.40;;
10463;SDS011;5279;42.048;24.638;2023-04-24T04:55:38;4.27;;;3.87;;
10463;SDS011;5279;42.048;24.638;2023-04-24T04:58:05;4.17;;;3.83;;
10463;SDS011;5279;42.048;24.638;2023-04-24T05:00:32;5.37;;;4.67;;
10463;SDS011;5279;42.048;24.638;2023-04-24T05:03:00;5.53;;;4.60;;
10463;SDS011;5279;42.048;24.638;2023-04-24T05:05:27;4.27;;;3.87;;
10463;SDS011;5279;42.048;24.638;2023-04-24T05:07:56;5.80;;;4.30;;
10463;SDS011;5279;42.048;24.638;2023-04-24T05:10:23;5.87;;;4.43;;
10463;SDS011;5279;42.048;24.638;2023-04-24T05:12:50;3.60;;;3.30;;
10463;SDS011;5279;42.048;24.638;2023-04-24T05:15:16;3.70;;;3.40;;
10463;SDS011;5279;42.048;24.638;2023-04-24T05:17:43;6.40;;;3.33;;
10463;SDS011;5279;42.048;24.638;2023-04-24T05:20:10;4.07;;;3.30;;
10463;SDS011;5279;42.048;24.638;2023-04-24T05:22:37;4.97;;;4.03;;
10463;SDS011;5279;42.048;24.638;2023-04-24T05:25:06;6.53;;;4.30;;
10463;SDS011;5279;42.048;24.638;2023-04-24T05:27:33;6.17;;;4.87;;
10463;SDS011;5279;42.048;24.638;2023-04-24T05:30:00;6.87;;;4.97;;
10463;SDS011;5279;42.048;24.638;2023-04-24T05:32:27;6.80;;;5.40;;
10463;SDS011;5279;42.048;24.638;2023-04-24T05:34:54;5.90;;;5.30;;
10463;SDS011;5279;42.048;24.638;2023-04-24T05:37:21;7.23;;;6.40;;
10463;SDS011;5279;42.048;24.638;2023-04-24T05:39:48;7.47;;;6.37;;
10463;SDS011;5279;42.048;24.638;2023-04-24T05:42:16;10.77;;;7.20;;
10463;SDS011;5279;42.048;24.638;2023-04-24T05:44:43;8.17;;;7.37;;
10463;SDS011;5279;42.048;24.638;2023-04-24T05:47:10;12.50;;;8.70;;
10463;SDS011;5279;42.048;24.638;2023-04-24T05:49:37;14.47;;;10.37;;
10463;SDS011;5279;42.048;24.638;2023-04-24T05:52:03;16.50;;;9.13;;
10463;SDS011;5279;42.048;24.638;2023-04-24T05:54:31;11.47;;;9.20;;
10463;SDS011;5279;42.048;24.638;2023-04-24T05:56:58;9.87;;;8.00;;
10463;SDS011;5279;42.048;24.638;2023-04-24T05:59:27;9.17;;;7.97;;
10463;SDS011;5279;42.048;24.638;2023-04-24T06:01:56;13.23;;;8.63;;
10463;SDS011;5279;42.048;24.638;2023-04-24T06:04:23;10.77;;;8.13;;
10463;SDS011;5279;42.048;24.638;2023-04-24T06:06:50;10.53;;;8.27;;
10463;SDS011;5279;42.048;24.638;2023-04-24T06:09:20;11.30;;;7.73;;
10463;SDS011;5279;42.048;24.638;2023-04-24T06:11:48;9.50;;;8.17;;
10463;SDS011;5279;42.048;24.638;2023-04-24T06:14:17;12.10;;;9.17;;
10463;SDS011;5279;42.048;24.638;2023-04-24T06:16:46;8.83;;;7.93;;
10463;SDS011;5279;42.048;24.638;2023-04-24T06:19:12;11.80;;;8.37;;
10463;SDS011;5279;42.048;24.638;2023-04-24T06:21:39;9.30;;;7.33;;
10463;SDS011;5279;42.048;24.638;2023-04-24T06:24:06;9.50;;;7.60;;
10463;SDS011;5279;42.048;24.638;2023-04-24T06:26:33;9.90;;;7.77;;
10463;SDS011;5279;42.048;24.638;2023-04-24T06:29:00;10.57;;;8.07;;
10463;SDS011;5279;42.048;24.638;2023-04-24T06:31:27;7.90;;;7.10;;
10463;SDS011;5279;42.048;24.638;2023-04-24T06:33:55;10.57;;;7.63;;
10463;SDS011;5279;42.048;24.638;2023-04-24T06:36:22;8.37;;;6.43;;
10463;SDS011;5279;42.048;24.638;2023-04-24T06:38:49;8.27;;;5.63;;
10463;SDS011;5279;42.048;24.638;2023-04-24T06:41:15;6.60;;;5.03;;
10463;SDS011;5279;42.048;24.638;2023-04-24T06:43:42;5.97;;;5.13;;
10463;SDS011;5279;42.048;24.638;2023-04-24T06:46:09;5.13;;;4.50;;
10463;SDS011;5279;42.048;24.638;2023-04-24T06:48:37;6.87;;;4.60;;
10463;SDS011;5279;42.048;24.638;2023-04-24T06:51:05;5.23;;;4.20;;
10463;SDS011;5279;42.048;24.638;2023-04-24T06:53:32;4.87;;;4.33;;
10463;SDS011;5279;42.048;24.638;2023-04-24T06:55:59;4.30;;;3.90;;
10463;SDS011;5279;42.048;24.638;2023-04-24T06:58:26;5.23;;;4.23;;
10463;SDS011;5279;42.048;24.638;2023-04-24T07:00:53;5.73;;;3.60;;
10463;SDS011;5279;42.048;24.638;2023-04-24T07:03:19;5.17;;;4.37;;
10463;SDS011;5279;42.048;24.638;2023-04-24T07:05:46;4.37;;;3.97;;
10463;SDS011;5279;42.048;24.638;2023-04-24T07:08:14;5.67;;;4.70;;
10463;SDS011;5279;42.048;24.638;2023-04-24T07:10:43;5.77;;;4.73;;
10463;SDS011;5279;42.048;24.638;2023-04-24T07:13:10;5.20;;;4.63;;
10463;SDS011;5279;42.048;24.638;2023-04-24T07:15:36;4.80;;;4.30;;
10463;SDS011;5279;42.048;24.638;2023-04-24T07:18:05;5.43;;;4.90;;
10463;SDS011;5279;42.048;24.638;2023-04-24T07:20:31;5.70;;;5.00;;
10463;SDS011;5279;42.048;24.638;2023-04-24T07:22:59;5.93;;;5.03;;
10463;SDS011;5279;42.048;24.638;2023-04-24T07:25:27;6.53;;;5.20;;
10463;SDS011;5279;42.048;24.638;2023-04-24T07:27:54;6.90;;;4.90;;
10463;SDS011;5279;42.048;24.638;2023-04-24T07:30:21;5.20;;;4.70;;
10463;SDS011;5279;42.048;24.638;2023-04-24T07:32:48;5.93;;;5.40;;
10463;SDS011;5279;42.048;24.638;2023-04-24T07:35:15;6.80;;;5.13;;
10463;SDS011;5279;42.048;24.638;2023-04-24T07:37:42;6.13;;;5.47;;
10463;SDS011;5279;42.048;24.638;2023-04-24T07:40:11;6.20;;;5.60;;
10463;SDS011;5279;42.048;24.638;2023-04-24T07:42:39;7.87;;;5.07;;
10463;SDS011;5279;42.048;24.638;2023-04-24T07:45:06;6.13;;;5.20;;
10463;SDS011;5279;42.048;24.638;2023-04-24T07:47:33;7.10;;;6.23;;
10463;SDS011;5279;42.048;24.638;2023-04-24T07:50:01;9.73;;;6.50;;
10463;SDS011;5279;42.048;24.638;2023-04-24T07:52:28;6.07;;;5.27;;
10463;SDS011;5279;42.048;24.638;2023-04-24T07:54:55;7.30;;;5.43;;
10463;SDS011;5279;42.048;24.638;2023-04-24T07:57:25;7.23;;;6.10;;
10463;SDS011;5279;42.048;24.638;2023-04-24T07:59:53;8.03;;;6.13;;
10463;SDS011;5279;42.048;24.638;2023-04-24T08:02:20;7.13;;;6.40;;
10463;SDS011;5279;42.048;24.638;2023-04-24T08:04:51;5.90;;;5.40;;
10463;SDS011;5279;42.048;24.638;2023-04-24T08:07:19;7.00;;;5.60;;
10463;SDS011;5279;42.048;24.638;2023-04-24T08:09:45;6.43;;;5.83;;
10463;SDS011;5279;42.048;24.638;2023-04-24T08:12:12;9.27;;;5.90;;
10463;SDS011;5279;42.048;24.638;2023-04-24T08:14:39;6.17;;;5.30;;
10463;SDS011;5279;42.048;24.638;2023-04-24T08:17:08;6.47;;;5.63;;
10463;SDS011;5279;42.048;24.638;2023-04-24T08:19:34;5.80;;;5.17;;
10463;SDS011;5279;42.048;24.638;2023-04-24T08:22:02;5.53;;;5.00;;
10463;SDS011;5279;42.048;24.638;2023-04-24T08:24:30;4.77;;;4.10;;
10463;SDS011;5279;42.048;24.638;2023-04-24T08:26:57;5.03;;;4.53;;
10463;SDS011;5279;42.048;24.638;2023-04-24T08:29:24;5.90;;;4.47;;
10463;SDS011;5279;42.048;24.638;2023-04-24T08:31:51;4.50;;;4.10;;
10463;SDS011;5279;42.048;24.638;2023-04-24T08:34:21;5.13;;;4.63;;
10463;SDS011;5279;42.048;24.638;2023-04-24T08:36:47;4.00;;;3.60;;
10463;SDS011;5279;42.048;24.638;2023-04-24T08:39:15;3.93;;;3.63;;
10463;SDS011;5279;42.048;24.638;2023-04-24T08:41:44;8.00;;;4.47;;
10463;SDS011;5279;42.048;24.638;2023-04-24T08:44:11;4.87;;;4.10;;
10463;SDS011;5279;42.048;24.638;2023-04-24T08:46:41;4.30;;;3.83;;
10463;SDS011;5279;42.048;24.638;2023-04-24T08:49:10;4.43;;;4.03;;
10463;SDS011;5279;42.048;24.638;2023-04-24T08:51:39;5.60;;;4.60;;
10463;SDS011;5279;42.048;24.638;2023-04-24T08:54:06;6.30;;;4.47;;
10463;SDS011;5279;42.048;24.638;2023-04-24T08:56:34;7.40;;;4.23;;
10463;SDS011;5279;42.048;24.638;2023-04-24T08:59:04;5.33;;;4.43;;
10463;SDS011;5279;42.048;24.638;2023-04-24T09:01:32;6.10;;;4.93;;
10463;SDS011;5279;42.048;24.638;2023-04-24T09:04:00;5.60;;;4.60;;
10463;SDS011;5279;42.048;24.638;2023-04-24T09:06:28;5.23;;;4.73;;
10463;SDS011;5279;42.048;24.638;2023-04-24T09:08:58;5.33;;;4.83;;
10463;SDS011;5279;42.048;24.638;2023-04-24T09:11:29;7.40;;;4.77;;
10463;SDS011;5279;42.048;24.638;2023-04-24T09:13:56;9.60;;;5.23;;
10463;SDS011;5279;42.048;24.638;2023-04-24T09:16:24;6.90;;;5.17;;
10463;SDS011;5279;42.048;24.638;2023-04-24T09:18:52;7.10;;;4.70;;
10463;SDS011;5279;42.048;24.638;2023-04-24T09:21:20;5.57;;;4.70;;
10463;SDS011;5279;42.048;24.638;2023-04-24T09:23:48;9.87;;;4.57;;
10463;SDS011;5279;42.048;24.638;2023-04-24T09:26:29;7.67;;;5.47;;
10463;SDS011;5279;42.048;24.638;2023-04-24T09:28:58;6.47;;;5.03;;
10463;SDS011;5279;42.048;24.638;2023-04-24T09:31:26;5.67;;;4.70;;
10463;SDS011;5279;42.048;24.638;2023-04-24T09:33:55;5.20;;;4.70;;
10463;SDS011;5279;42.048;24.638;2023-04-24T09:36:29;8.23;;;4.57;;
10463;SDS011;5279;42.048;24.638;2023-04-24T09:39:00;6.17;;;4.77;;
10463;SDS011;5279;42.048;24.638;2023-04-24T09:41:29;7.13;;;4.50;;
10463;SDS011;5279;42.048;24.638;2023-04-24T09:43:56;4.80;;;4.40;;
10463;SDS011;5279;42.048;24.638;2023-04-24T09:46:30;5.30;;;4.60;;
10463;SDS011;5279;42.048;24.638;2023-04-24T09:49:06;5.00;;;4.30;;
10463;SDS011;5279;42.048;24.638;2023-04-24T09:51:35;6.27;;;4.80;;
10463;SDS011;5279;42.048;24.638;2023-04-24T09:54:05;4.23;;;3.90;;
10463;SDS011;5279;42.048;24.638;2023-04-24T09:56:41;6.60;;;3.90;;
10463;SDS011;5279;42.048;24.638;2023-04-24T09:59:09;4.90;;;4.27;;
10463;SDS011;5279;42.048;24.638;2023-04-24T10:01:36;4.60;;;3.93;;
10463;SDS011;5279;42.048;24.638;2023-04-24T10:04:07;6.27;;;3.57;;
10463;SDS011;5279;42.048;24.638;2023-04-24T10:06:42;6.20;;;4.50;;
10463;SDS011;5279;42.048;24.638;2023-04-24T10:09:11;4.93;;;4.47;;
10463;SDS011;5279;42.048;24.638;2023-04-24T10:11:41;7.07;;;3.63;;
10463;SDS011;5279;42.048;24.638;2023-04-24T10:14:10;6.30;;;4.20;;
10463;SDS011;5279;42.048;24.638;2023-04-24T10:16:39;4.70;;;4.17;;
10463;SDS011;5279;42.048;24.638;2023-04-24T10:19:06;4.40;;;4.00;;
10463;SDS011;5279;42.048;24.638;2023-04-24T10:21:34;4.83;;;4.33;;
10463;SDS011;5279;42.048;24.638;2023-04-24T10:24:03;5.23;;;4.07;;
10463;SDS011;5279;42.048;24.638;2023-04-24T10:26:35;5.27;;;4.77;;
10463;SDS011;5279;42.048;24.638;2023-04-24T10:29:03;6.27;;;4.33;;
10463;SDS011;5279;42.048;24.638;2023-04-24T10:31:35;4.50;;;4.10;;
10463;SDS011;5279;42.048;24.638;2023-04-24T10:34:03;6.23;;;5.00;;
10463;SDS011;5279;42.048;24.638;2023-04-24T10:36:31;5.13;;;4.00;;
10463;SDS011;5279;42.048;24.638;2023-04-24T10:39:01;6.87;;;4.57;;
10463;SDS011;5279;42.048;24.638;2023-04-24T10:41:30;7.47;;;4.20;;
10463;SDS011;5279;42.048;24.638;2023-04-24T10:44:08;6.90;;;4.07;;
10463;SDS011;5279;42.048;24.638;2023-04-24T10:46:36;4.00;;;3.60;;
10463;SDS011;5279;42.048;24.638;2023-04-24T10:49:03;4.47;;;4.07;;
10463;SDS011;5279;42.048;24.638;2023-04-24T10:51:46;6.70;;;4.10;;
10463;SDS011;5279;42.048;24.638;2023-04-24T10:54:25;4.40;;;3.87;;
10463;SDS011;5279;42.048;24.638;2023-04-24T10:56:52;6.17;;;3.70;;
10463;SDS011;5279;42.048;24.638;2023-04-24T10:59:27;5.60;;;4.20;;
10463;SDS011;5279;42.048;24.638;2023-04-24T11:02:02;3.63;;;3.33;;
10463;SDS011;5279;42.048;24.638;2023-04-24T11:04:29;4.60;;;3.40;;
10463;SDS011;5279;42.048;24.638;2023-04-24T11:06:59;4.10;;;3.70;;
10463;SDS011;5279;42.048;24.638;2023-04-24T11:09:26;5.83;;;3.70;;
10463;SDS011;5279;42.048;24.638;2023-04-24T11:12:02;4.30;;;3.50;;
10463;SDS011;5279;42.048;24.638;2023-04-24T11:15:01;3.60;;;3.20;;
10463;SDS011;5279;42.048;24.638;2023-04-24T11:17:32;3.60;;;3.30;;
10463;SDS011;5279;42.048;24.638;2023-04-24T11:20:02;5.20;;;3.20;;
10463;SDS011;5279;42.048;24.638;2023-04-24T11:22:32;4.80;;;3.97;;
10463;SDS011;5279;42.048;24.638;2023-04-24T11:25:01;3.80;;;3.20;;
10463;SDS011;5279;42.048;24.638;2023-04-24T11:27:29;4.13;;;3.43;;
10463;SDS011;5279;42.048;24.638;2023-04-24T11:30:00;3.50;;;3.20;;
10463;SDS011;5279;42.048;24.638;2023-04-24T11:32:29;3.40;;;3.10;;
10463;SDS011;5279;42.048;24.638;2023-04-24T11:35:00;4.20;;;3.40;;
10463;SDS011;5279;42.048;24.638;2023-04-24T11:37:33;4.10;;;3.10;;
10463;SDS011;5279;42.048;24.638;2023-04-24T11:40:01;3.67;;;3.37;;
10463;SDS011;5279;42.048;24.638;2023-04-24T11:42:33;3.83;;;3.40;;
10463;SDS011;5279;42.048;24.638;2023-04-24T11:45:02;4.03;;;3.20;;
10463;SDS011;5279;42.048;24.638;2023-04-24T11:47:34;3.20;;;2.93;;
10463;SDS011;5279;42.048;24.638;2023-04-24T11:50:01;6.20;;;3.00;;
10463;SDS011;5279;42.048;24.638;2023-04-24T11:52:30;3.50;;;3.20;;
10463;SDS011;5279;42.048;24.638;2023-04-24T11:54:57;3.77;;;3.43;;
10463;SDS011;5279;42.048;24.638;2023-04-24T11:57:24;3.70;;;3.40;;
10463;SDS011;5279;42.048;24.638;2023-04-24T11:59:54;3.77;;;3.40;;
10463;SDS011;5279;42.048;24.638;2023-04-24T12:02:25;7.37;;;3.30;;
10463;SDS011;5279;42.048;24.638;2023-04-24T12:04:53;3.43;;;2.83;;
10463;SDS011;5279;42.048;24.638;2023-04-24T12:07:21;8.23;;;3.70;;
10463;SDS011;5279;42.048;24.638;2023-04-24T12:09:50;6.23;;;3.60;;
10463;SDS011;5279;42.048;24.638;2023-04-24T12:12:24;5.23;;;4.07;;
10463;SDS011;5279;42.048;24.638;2023-04-24T12:14:52;6.33;;;3.53;;
10463;SDS011;5279;42.048;24.638;2023-04-24T12:17:24;4.13;;;3.63;;
10463;SDS011;5279;42.048;24.638;2023-04-24T12:19:56;3.57;;;3.27;;
10463;SDS011;5279;42.048;24.638;2023-04-24T12:22:25;3.57;;;3.17;;
10463;SDS011;5279;42.048;24.638;2023-04-24T12:24:55;5.00;;;2.97;;
10463;SDS011;5279;42.048;24.638;2023-04-24T12:27:28;3.80;;;3.40;;
10463;SDS011;5279;42.048;24.638;2023-04-24T12:29:57;6.00;;;3.30;;
10463;SDS011;5279;42.048;24.638;2023-04-24T12:32:26;3.27;;;3.03;;
10463;SDS011;5279;42.048;24.638;2023-04-24T12:34:53;4.93;;;3.13;;
10463;SDS011;5279;42.048;24.638;2023-04-24T12:37:22;3.73;;;3.07;;
10463;SDS011;5279;42.048;24.638;2023-04-24T12:40:00;3.23;;;3.03;;
10463;SDS011;5279;42.048;24.638;2023-04-24T12:42:29;3.60;;;3.30;;
10463;SDS011;5279;42.048;24.638;2023-04-24T12:44:57;3.17;;;2.93;;
10463;SDS011;5279;42.048;24.638;2023-04-24T12:47:27;3.50;;;3.07;;
10463;SDS011;5279;42.048;24.638;2023-04-24T12:49:55;4.90;;;3.27;;
10463;SDS011;5279;42.048;24.638;2023-04-24T12:52:22;4.60;;;2.93;;
10463;SDS011;5279;42.048;24.638;2023-04-24T12:54:52;3.40;;;2.80;;
10463;SDS011;5279;42.048;24.638;2023-04-24T12:57:19;3.43;;;3.13;;
10463;SDS011;5279;42.048;24.638;2023-04-24T12:59:46;3.73;;;3.40;;
10463;SDS011;5279;42.048;24.638;2023-04-24T13:02:13;5.17;;;3.03;;
10463;SDS011;5279;42.048;24.638;2023-04-24T13:04:43;3.27;;;2.97;;
10463;SDS011;5279;42.048;24.638;2023-04-24T13:07:11;3.50;;;3.20;;
10463;SDS011;5279;42.048;24.638;2023-04-24T13:09:39;3.83;;;2.70;;
10463;SDS011;5279;42.048;24.638;2023-04-24T13:12:06;3.07;;;2.87;;
10463;SDS011;5279;42.048;24.638;2023-04-24T13:14:33;6.33;;;3.03;;
10463;SDS011;5279;42.048;24.638;2023-04-24T13:17:00;3.40;;;3.10;;
10463;SDS011;5279;42.048;24.638;2023-04-24T13:19:28;3.33;;;3.03;;
10463;SDS011;5279;42.048;24.638;2023-04-24T13:21:56;3.00;;;2.80;;
10463;SDS011;5279;42.048;24.638;2023-04-24T13:24:24;3.50;;;3.07;;
10463;SDS011;5279;42.048;24.638;2023-04-24T13:26:51;3.37;;;2.80;;
10463;SDS011;5279;42.048;24.638;2023-04-24T13:29:19;4.87;;;3.13;;
10463;SDS011;5279;42.048;24.638;2023-04-24T13:31:46;3.40;;;2.47;;
10463;SDS011;5279;42.048;24.638;2023-04-24T13:34:14;3.67;;;3.00;;
10463;SDS011;5279;42.048;24.638;2023-04-24T13:36:41;4.87;;;3.10;;
10463;SDS011;5279;42.048;24.638;2023-04-24T13:39:10;5.03;;;2.87;;
10463;SDS011;5279;42.048;24.638;2023-04-24T13:41:36;5.77;;;2.83;;
10463;SDS011;5279;42.048;24.638;2023-04-24T13:44:04;3.03;;;2.83;;
10463;SDS011;5279;42.048;24.638;2023-04-24T13:46:32;3.60;;;3.10;;
10463;SDS011;5279;42.048;24.638;2023-04-24T13:48:59;3.93;;;2.90;;
10463;SDS011;5279;42.048;24.638;2023-04-24T13:51:28;4.23;;;3.23;;
10463;SDS011;5279;42.048;24.638;2023-04-24T13:53:55;3.40;;;2.83;;
10463;SDS011;5279;42.048;24.638;2023-04-24T13:56:24;3.40;;;2.37;;
10463;SDS011;5279;42.048;24.638;2023-04-24T13:58:51;4.77;;;2.90;;
10463;SDS011;5279;42.048;24.638;2023-04-24T14:01:19;3.57;;;2.50;;
10463;SDS011;5279;42.048;24.638;2023-04-24T14:03:49;3.20;;;2.43;;
10463;SDS011;5279;42.048;24.638;2023-04-24T14:06:16;3.70;;;2.80;;
10463;SDS011;5279;42.048;24.638;2023-04-24T14:08:43;3.50;;;2.80;;
10463;SDS011;5279;42.048;24.638;2023-04-24T14:11:10;2.67;;;2.47;;
10463;SDS011;5279;42.048;24.638;2023-04-24T14:13:39;3.50;;;3.00;;
10463;SDS011;5279;42.048;24.638;2023-04-24T14:16:07;3.50;;;2.60;;
10463;SDS011;5279;42.048;24.638;2023-04-24T14:18:34;4.67;;;2.73;;
10463;SDS011;5279;42.048;24.638;2023-04-24T14:21:01;3.00;;;2.70;;
10463;SDS011;5279;42.048;24.638;2023-04-24T14:23:28;3.20;;;2.93;;
10463;SDS011;5279;42.048;24.638;2023-04-24T14:25:56;2.60;;;2.40;;
10463;SDS011;5279;42.048;24.638;2023-04-24T14:28:23;3.37;;;3.07;;
10463;SDS011;5279;42.048;24.638;2023-04-24T14:30:52;2.83;;;2.63;;
10463;SDS011;5279;42.048;24.638;2023-04-24T14:33:19;3.13;;;2.83;;
10463;SDS011;5279;42.048;24.638;2023-04-24T14:35:46;3.87;;;2.77;;
10463;SDS011;5279;42.048;24.638;2023-04-24T14:38:14;3.23;;;3.00;;
10463;SDS011;5279;42.048;24.638;2023-04-24T14:40:41;4.43;;;2.70;;
10463;SDS011;5279;42.048;24.638;2023-04-24T14:43:08;4.27;;;2.97;;
10463;SDS011;5279;42.048;24.638;2023-04-24T14:45:36;4.80;;;3.13;;
10463;SDS011;5279;42.048;24.638;2023-04-24T14:48:04;3.13;;;2.90;;
10463;SDS011;5279;42.048;24.638;2023-04-24T14:50:31;4.77;;;3.00;;
10463;SDS011;5279;42.048;24.638;2023-04-24T14:52:58;3.57;;;3.10;;